Terminal Aerodrome Forecast
Issued by NWS Sterling, VA

Current Version | Previous Version | Graphics & Text | Print | Product List | Glossary On
Versions: 1 2 3 4 5 6 7 8 9 10 11 12 13 14 15 16 17 18 19 20 21 22 23 24
149
FTUS41 KLWX 010844 AAA
TAFIAD
TAF AMD
KIAD 010844Z 0109/0212 31010KT P6SM SCT110
     FM011300 29010G20KT P6SM SCT070
     FM020300 27006KT P6SM FEW250=

USA.gov is the U.S. government's official web portal to all federal, state and local government web resources and services.